Terminal Aerodrome Forecast
Issued by NWS

Home | Current Version | Previous Version | Text Only | Print | Product List | Glossary On
Versions: 1 2 3 4 5 6 7 8 9 10 11 12 13 14 15 16 17 18 19 20 21 22 23 24
000
FTUS44 KSJT 210600 AAA
TAFSOA
TAF AMD
KSOA 210608Z 2106/2206 17012KT 4SM BR OVC010
      TEMPO 2106/2108 2SM BR OVC007
     FM210800 17010KT 2SM BR OVC007
     FM212000 22010KT P6SM SCT015 BKN250=

USA.gov is the U.S. government's official web portal to all federal, state and local government web resources and services.